Time;durP1;ratioP1;P1;durP2;ratioP2;P2;SDS_P1;SDS_P2;PMS_P1;PMS_P2;Temp;Humidity;BMP_temperature;BMP_pressure;BME280_temperature;BME280_humidity;BME280_pressure;Samples;Min_cycle;Max_cycle;Signal;HPM_P1;HPM_P2
2023/02/10 00:01:12;;;;;;;43.43;24.70;;;-1.00;99.90;;;;;;4974145;28;20796;-68
2023/02/10 00:03:38;;;;;;;41.43;25.57;;;-1.00;99.90;;;;;;4974218;28;20435;-69
2023/02/10 00:06:04;;;;;;;37.27;25.50;;;-1.00;99.90;;;;;;4974124;28;20416;-69
2023/02/10 00:08:30;;;;;;;34.47;22.03;;;-1.00;99.90;;;;;;4973269;28;20451;-69
2023/02/10 00:10:58;;;;;;;35.03;23.63;;;-1.00;99.90;;;;;;4973955;28;20498;-69
2023/02/10 00:13:24;;;;;;;38.10;25.27;;;-1.10;99.90;;;;;;4973984;28;20420;-68
2023/02/10 00:15:50;;;;;;;32.73;23.50;;;-1.10;99.90;;;;;;4973906;28;20463;-68
2023/02/10 00:18:15;;;;;;;41.43;24.60;;;-1.10;99.90;;;;;;4973155;28;20471;-69
2023/02/10 00:20:41;;;;;;;36.63;23.33;;;-1.10;99.90;;;;;;4973907;28;20622;-69
2023/02/10 00:23:07;;;;;;;35.43;24.50;;;-1.10;99.90;;;;;;4973757;28;20681;-69
2023/02/10 00:25:34;;;;;;;47.00;26.20;;;-1.20;99.90;;;;;;4973758;28;20252;-69
2023/02/10 00:28:00;;;;;;;34.30;22.80;;;-1.20;99.90;;;;;;4973511;28;20196;-69
2023/02/10 00:30:25;;;;;;;41.60;24.60;;;-1.20;99.90;;;;;;4973160;28;20426;-69
2023/02/10 00:32:51;;;;;;;39.07;23.43;;;-1.20;99.90;;;;;;4973374;28;20222;-68
2023/02/10 00:35:16;;;;;;;41.53;24.87;;;-1.20;99.90;;;;;;4973603;28;20183;-68
2023/02/10 00:37:42;;;;;;;41.00;23.23;;;-1.30;99.90;;;;;;4972270;28;20176;-69
2023/02/10 00:40:08;;;;;;;37.87;23.40;;;-1.30;99.90;;;;;;4973014;28;20199;-68
2023/02/10 00:42:33;;;;;;;39.53;22.80;;;-1.30;99.90;;;;;;4973418;28;20554;-69
2023/02/10 00:44:59;;;;;;;45.00;25.50;;;-1.30;99.90;;;;;;4973490;28;20499;-69
2023/02/10 00:47:25;;;;;;;37.30;22.97;;;-1.30;99.90;;;;;;4973382;28;20200;-69
2023/02/10 00:49:52;;;;;;;40.73;23.80;;;-1.30;99.90;;;;;;4972280;28;20188;-69
2023/02/10 00:52:17;;;;;;;42.53;25.40;;;-1.30;99.90;;;;;;4973432;28;20481;-69
2023/02/10 00:54:43;;;;;;;41.23;23.77;;;-1.30;99.90;;;;;;4973144;28;20412;-69
2023/02/10 00:57:08;;;;;;;45.37;24.07;;;-1.40;99.90;;;;;;4973343;28;20188;-68
2023/02/10 00:59:34;;;;;;;35.50;23.83;;;-1.40;99.90;;;;;;4972495;28;20224;-69
2023/02/10 01:01:59;;;;;;;37.17;23.80;;;-1.40;99.90;;;;;;4973202;28;20210;-68
2023/02/10 01:04:25;;;;;;;38.10;23.90;;;-1.40;99.90;;;;;;4973262;28;20172;-69
2023/02/10 01:06:51;;;;;;;38.23;21.30;;;-1.40;99.90;;;;;;4973004;28;20579;-68
2023/02/10 01:09:17;;;;;;;40.93;24.77;;;-1.40;99.90;;;;;;4972407;28;20275;-69
2023/02/10 01:11:43;;;;;;;36.10;22.90;;;-1.40;99.90;;;;;;4971947;28;20180;-69
2023/02/10 01:14:09;;;;;;;41.50;23.70;;;-1.50;99.90;;;;;;4973125;28;20423;-69
2023/02/10 01:16:34;;;;;;;47.50;27.27;;;-1.50;99.90;;;;;;4973261;28;20423;-68
2023/02/10 01:19:00;;;;;;;46.50;24.53;;;-1.50;99.90;;;;;;4972389;28;20188;-68
2023/02/10 01:21:26;;;;;;;50.73;26.10;;;-1.60;99.90;;;;;;4973156;28;20180;-68
2023/02/10 01:23:52;;;;;;;45.50;25.73;;;-1.60;99.90;;;;;;4973126;28;20673;-69
2023/02/10 01:26:18;;;;;;;41.50;24.20;;;-1.60;99.90;;;;;;4972938;28;20463;-69
2023/02/10 01:28:43;;;;;;;40.10;22.77;;;-1.60;99.90;;;;;;4972423;28;20666;-68
2023/02/10 01:31:12;;;;;;;41.23;25.80;;;-1.50;99.90;;;;;;4973079;28;20179;-68
2023/02/10 01:33:38;;;;;;;34.87;23.77;;;-1.50;99.90;;;;;;4972925;28;20185;-69
2023/02/10 01:36:11;;;;;;;39.00;25.47;;;-1.50;99.90;;;;;;4973021;28;20420;-69
2023/02/10 01:38:37;;;;;;;42.87;23.10;;;-1.40;99.90;;;;;;4972179;28;20462;-68
2023/02/10 01:41:04;;;;;;;38.93;23.50;;;-1.40;99.90;;;;;;4972965;28;20427;-68
2023/02/10 01:43:29;;;;;;;41.40;24.77;;;-1.40;99.90;;;;;;4972876;28;20184;-68
2023/02/10 01:45:55;;;;;;;44.07;25.23;;;-1.40;99.90;;;;;;4972958;28;20922;-68
2023/02/10 01:48:22;;;;;;;35.83;23.57;;;-1.50;99.90;;;;;;4972097;28;20210;-68
2023/02/10 01:50:50;;;;;;;47.50;25.60;;;-1.60;99.90;;;;;;4972807;28;20168;-68
2023/02/10 01:53:16;;;;;;;46.97;26.70;;;-1.70;99.90;;;;;;4972829;28;20422;-69
2023/02/10 01:55:46;;;;;;;41.67;24.20;;;-1.70;99.90;;;;;;4972730;28;20443;-68
2023/02/10 01:58:15;;;;;;;41.30;24.10;;;-1.70;99.90;;;;;;4972094;28;20444;-68
2023/02/10 02:00:40;;;;;;;39.10;25.00;;;-1.70;99.90;;;;;;4972714;28;20428;-68
2023/02/10 02:03:06;;;;;;;37.97;23.57;;;-1.60;99.90;;;;;;4975401;28;20429;-69
2023/02/10 02:05:35;;;;;;;41.03;25.17;;;-1.60;99.90;;;;;;4976305;28;20542;-68
2023/02/10 02:08:06;;;;;;;45.63;25.20;;;-1.60;99.90;;;;;;4976229;28;20463;-68
2023/02/10 02:10:47;;;;;;;42.40;26.93;;;-1.60;99.90;;;;;;4975612;28;20850;-68
2023/02/10 02:14:11;;;;;;;43.80;27.77;;;-1.70;99.90;;;;;;4976472;28;20486;-68
2023/02/10 02:16:48;;;;;;;45.80;28.20;;;-1.70;99.90;;;;;;4935647;29;20999;-68
2023/02/10 02:19:32;;;;;;;38.03;25.50;;;-1.70;99.90;;;;;;4970140;28;20443;-68
2023/02/10 02:22:19;;;;;;;37.17;25.43;;;-1.90;99.90;;;;;;4974807;28;20416;-68
2023/02/10 02:24:50;;;;;;;42.03;25.23;;;-1.90;99.90;;;;;;4976062;28;20451;-68
2023/02/10 02:27:43;;;;;;;46.60;28.50;;;-1.90;99.90;;;;;;4975754;28;20451;-68
2023/02/10 02:30:38;;;;;;;44.47;24.00;;;-2.00;99.90;;;;;;4975159;28;20443;-69
2023/02/10 02:33:26;;;;;;;40.30;22.33;;;-2.00;99.90;;;;;;4975835;28;20458;-68
2023/02/10 02:36:11;;;;;;;41.10;25.40;;;-2.00;99.90;;;;;;4975739;28;20420;-68
2023/02/10 02:38:41;;;;;;;34.60;23.30;;;-2.00;99.90;;;;;;4975013;28;20447;-68
2023/02/10 02:41:08;;;;;;;41.97;24.80;;;-2.00;99.90;;;;;;4975620;28;20785;-69
2023/02/10 02:43:34;;;;;;;39.47;24.50;;;-2.00;99.90;;;;;;4975586;28;20506;-68
2023/02/10 02:46:22;;;;;;;40.50;24.63;;;-1.90;99.90;;;;;;4975554;28;20786;-68
2023/02/10 02:49:13;;;;;;;39.90;23.33;;;-1.90;99.90;;;;;;4974737;28;20449;-69
2023/02/10 02:52:05;;;;;;;39.17;25.30;;;-1.90;99.90;;;;;;4975419;28;20969;-68
2023/02/10 02:54:46;;;;;;;44.50;27.40;;;-1.90;99.90;;;;;;4975445;28;20473;-69
2023/02/10 02:57:47;;;;;;;42.63;24.67;;;-1.90;99.90;;;;;;4975330;28;20423;-68
2023/02/10 03:00:19;;;;;;;43.60;24.97;;;-1.90;99.90;;;;;;4974427;28;20438;-69
2023/02/10 03:02:45;;;;;;;39.07;24.43;;;-2.00;99.90;;;;;;4975299;28;20443;-68
2023/02/10 03:05:17;;;;;;;43.77;25.57;;;-2.00;99.90;;;;;;4975208;28;21000;-69
2023/02/10 03:07:43;;;;;;;38.20;25.00;;;-2.00;99.90;;;;;;4975356;28;20820;-69
2023/02/10 03:10:08;;;;;;;46.13;25.33;;;-2.00;99.90;;;;;;4974312;28;20444;-68
2023/02/10 03:12:34;;;;;;;42.53;25.80;;;-2.00;99.90;;;;;;4974787;28;20203;-68
2023/02/10 03:14:59;;;;;;;46.60;26.50;;;-1.90;99.90;;;;;;4975118;28;20176;-68
2023/02/10 03:17:25;;;;;;;41.60;25.57;;;-1.90;99.90;;;;;;4974990;28;20669;-69
2023/02/10 03:19:50;;;;;;;39.03;25.53;;;-1.90;99.90;;;;;;4974190;28;20271;-69
2023/02/10 03:22:16;;;;;;;35.70;24.83;;;-1.90;99.90;;;;;;4974868;28;20669;-68
2023/02/10 03:24:41;;;;;;;41.60;23.80;;;-2.00;99.90;;;;;;4974822;28;20184;-69
2023/02/10 03:27:07;;;;;;;39.87;25.13;;;-2.00;99.90;;;;;;4974766;28;20219;-69
2023/02/10 03:29:32;;;;;;;37.93;26.20;;;-2.10;99.90;;;;;;4974035;28;20188;-68
2023/02/10 03:32:01;;;;;;;31.70;21.50;;;-2.10;99.90;;;;;;4974901;28;20169;-68
2023/02/10 03:34:27;;;;;;;42.33;24.73;;;-2.10;99.90;;;;;;4974696;28;20173;-69
2023/02/10 03:36:53;;;;;;;39.13;24.70;;;-2.10;99.90;;;;;;4974681;28;20428;-69
2023/02/10 03:39:18;;;;;;;40.90;24.90;;;-2.10;99.90;;;;;;4973656;28;20799;-69
2023/02/10 03:41:44;;;;;;;47.77;25.83;;;-2.10;99.90;;;;;;4974548;28;20265;-68
2023/02/10 03:44:09;;;;;;;42.90;26.33;;;-2.10;99.90;;;;;;4974606;28;20584;-68
2023/02/10 03:46:36;;;;;;;38.13;24.97;;;-2.10;99.90;;;;;;4974516;28;20224;-68
2023/02/10 03:49:02;;;;;;;36.67;23.37;;;-2.10;99.90;;;;;;4973621;28;20279;-68
2023/02/10 03:51:28;;;;;;;41.73;23.97;;;-2.10;99.90;;;;;;4974409;28;20452;-69
2023/02/10 03:53:53;;;;;;;36.77;23.20;;;-2.10;99.90;;;;;;4974164;28;20933;-69
2023/02/10 03:56:19;;;;;;;34.80;22.77;;;-2.10;99.90;;;;;;4974214;28;20196;-69
2023/02/10 03:58:44;;;;;;;35.43;23.13;;;-2.20;99.90;;;;;;4973471;28;20207;-68
2023/02/10 04:01:12;;;;;;;37.73;23.00;;;-2.30;99.90;;;;;;4974173;28;20541;-68
2023/02/10 04:03:38;;;;;;;38.47;23.53;;;-2.30;99.90;;;;;;4974252;28;20212;-68
2023/02/10 04:06:04;;;;;;;38.10;24.70;;;-2.30;99.90;;;;;;4974052;28;20455;-69
2023/02/10 04:08:29;;;;;;;35.47;23.30;;;-2.30;99.90;;;;;;4973191;28;20665;-68
2023/02/10 04:10:55;;;;;;;38.80;24.73;;;-2.30;99.90;;;;;;4973991;28;20279;-69
2023/02/10 04:13:20;;;;;;;42.47;24.93;;;-2.30;99.90;;;;;;4973994;28;20172;-68
2023/02/10 04:15:47;;;;;;;38.87;25.97;;;-2.30;99.90;;;;;;4973944;28;20168;-69
2023/02/10 04:18:13;;;;;;;38.80;23.40;;;-2.30;99.90;;;;;;4973147;28;20765;-67
2023/02/10 04:20:38;;;;;;;33.03;22.83;;;-2.30;99.90;;;;;;4972616;28;20515;-68
2023/02/10 04:23:04;;;;;;;40.07;24.17;;;-2.30;99.90;;;;;;4973859;28;20173;-68
2023/02/10 04:25:29;;;;;;;33.93;22.33;;;-2.30;99.90;;;;;;4973131;28;20172;-68
2023/02/10 04:27:55;;;;;;;34.60;23.60;;;-2.30;99.90;;;;;;4972628;28;20192;-68
2023/02/10 04:30:20;;;;;;;37.67;23.10;;;-2.30;99.90;;;;;;4973054;28;20252;-68
2023/02/10 04:32:46;;;;;;;34.47;21.40;;;-2.30;99.90;;;;;;4973676;28;20635;-68
2023/02/10 04:35:11;;;;;;;38.60;23.20;;;-2.30;99.90;;;;;;4973846;28;20169;-68
2023/02/10 04:37:37;;;;;;;36.87;24.73;;;-2.30;99.90;;;;;;4973778;28;20176;-69
2023/02/10 04:40:03;;;;;;;33.27;23.43;;;-2.30;99.90;;;;;;4972778;28;20236;-68
2023/02/10 04:42:32;;;;;;;40.53;22.80;;;-2.30;99.90;;;;;;4973528;28;20455;-68
2023/02/10 04:44:58;;;;;;;32.07;21.00;;;-2.30;99.90;;;;;;4973496;28;20416;-69
2023/02/10 04:47:28;;;;;;;34.73;21.80;;;-2.30;99.90;;;;;;4973453;28;20455;-69
2023/02/10 04:49:54;;;;;;;34.33;22.00;;;-2.30;99.90;;;;;;4972636;28;20451;-68
2023/02/10 04:52:20;;;;;;;34.07;21.43;;;-2.40;99.90;;;;;;4973295;28;20463;-69
2023/02/10 04:54:46;;;;;;;40.77;23.97;;;-2.30;99.90;;;;;;4973115;28;20428;-68
2023/02/10 04:57:12;;;;;;;45.37;24.47;;;-2.30;99.90;;;;;;4973819;28;20415;-69
2023/02/10 04:59:37;;;;;;;33.13;20.30;;;-2.30;99.90;;;;;;4972565;28;20682;-70
2023/02/10 05:02:03;;;;;;;43.43;22.83;;;-2.30;99.90;;;;;;4973281;28;20254;-69
2023/02/10 05:04:28;;;;;;;36.33;20.37;;;-2.30;99.90;;;;;;4973143;28;20250;-70
2023/02/10 05:06:57;;;;;;;38.13;23.13;;;-2.30;99.90;;;;;;4973154;28;20689;-69
2023/02/10 05:09:24;;;;;;;35.20;21.87;;;-2.30;99.90;;;;;;4972400;28;20184;-69
2023/02/10 05:11:49;;;;;;;34.93;21.97;;;-2.30;99.90;;;;;;4972999;28;20423;-70
2023/02/10 05:14:15;;;;;;;34.03;20.67;;;-2.40;99.90;;;;;;4973063;28;20522;-70
2023/02/10 05:16:40;;;;;;;32.30;21.17;;;-2.40;99.90;;;;;;4973235;28;20184;-70
2023/02/10 05:19:06;;;;;;;30.70;20.60;;;-2.50;99.90;;;;;;4972203;28;20563;-70
2023/02/10 05:21:31;;;;;;;36.80;23.20;;;-2.50;99.90;;;;;;4973093;28;20215;-69
2023/02/10 05:23:58;;;;;;;26.37;18.80;;;-2.50;99.90;;;;;;4973019;28;20181;-70
2023/02/10 05:26:23;;;;;;;34.60;20.53;;;-2.40;99.90;;;;;;4973014;28;20180;-69
2023/02/10 05:28:49;;;;;;;35.10;20.57;;;-2.40;99.90;;;;;;4972249;28;20439;-70
2023/02/10 05:31:14;;;;;;;32.70;20.83;;;-2.40;99.90;;;;;;4973053;28;20172;-69
2023/02/10 05:33:40;;;;;;;33.87;20.33;;;-2.50;99.90;;;;;;4972946;28;20177;-69
2023/02/10 05:36:06;;;;;;;36.97;21.60;;;-2.50;99.90;;;;;;4974271;28;20171;-70
2023/02/10 05:38:31;;;;;;;36.90;22.90;;;-2.40;99.90;;;;;;4975893;28;20600;-69
2023/02/10 05:40:57;;;;;;;34.60;21.53;;;-2.50;99.90;;;;;;4976770;28;20800;-70
2023/02/10 05:43:22;;;;;;;37.97;21.47;;;-2.60;99.90;;;;;;4976686;28;20177;-69
2023/02/10 05:45:48;;;;;;;33.20;21.57;;;-2.60;99.90;;;;;;4976642;28;20646;-70
2023/02/10 05:48:14;;;;;;;35.57;21.93;;;-2.60;99.90;;;;;;4975725;28;20290;-70
2023/02/10 05:50:39;;;;;;;32.63;22.50;;;-2.60;99.90;;;;;;4976554;28;20168;-69
2023/02/10 05:53:05;;;;;;;34.43;20.97;;;-2.50;99.90;;;;;;4976459;28;20168;-69
2023/02/10 05:55:31;;;;;;;30.07;19.40;;;-2.60;99.90;;;;;;4976376;28;20184;-69
2023/02/10 05:57:57;;;;;;;33.23;20.67;;;-2.60;99.90;;;;;;4976284;28;20780;-69
2023/02/10 06:00:22;;;;;;;34.93;21.37;;;-2.60;99.90;;;;;;4975750;28;20211;-69
2023/02/10 06:02:48;;;;;;;33.03;22.17;;;-2.60;99.90;;;;;;4976316;28;20183;-70
2023/02/10 06:05:14;;;;;;;33.47;20.77;;;-2.70;99.90;;;;;;4976329;28;20184;-69
2023/02/10 06:07:40;;;;;;;33.10;20.30;;;-2.70;99.90;;;;;;4976195;28;20462;-69
2023/02/10 06:10:06;;;;;;;33.10;20.90;;;-2.70;99.90;;;;;;4975530;28;20246;-69
2023/02/10 06:12:31;;;;;;;34.37;21.50;;;-2.70;99.90;;;;;;4976263;28;20172;-69
2023/02/10 06:14:57;;;;;;;30.30;20.53;;;-2.70;99.90;;;;;;4976190;28;20435;-69
2023/02/10 06:17:23;;;;;;;33.83;23.20;;;-2.70;99.90;;;;;;4976071;28;20542;-69
2023/02/10 06:19:48;;;;;;;39.13;20.93;;;-2.70;99.90;;;;;;4975523;28;20280;-69
2023/02/10 06:22:14;;;;;;;38.00;22.70;;;-2.70;99.90;;;;;;4976025;28;20187;-70
2023/02/10 06:24:41;;;;;;;35.97;22.27;;;-2.80;99.90;;;;;;4976025;28;20200;-69
2023/02/10 06:27:06;;;;;;;36.80;21.40;;;-2.70;99.90;;;;;;4974838;28;20208;-69
2023/02/10 06:29:32;;;;;;;42.20;22.77;;;-2.70;99.90;;;;;;4975068;28;20435;-69
2023/02/10 06:31:57;;;;;;;30.67;19.73;;;-2.70;99.90;;;;;;4975812;28;20657;-70
2023/02/10 06:34:23;;;;;;;35.67;21.53;;;-2.70;99.90;;;;;;4975814;28;20692;-69
2023/02/10 06:36:49;;;;;;;31.80;19.53;;;-2.60;99.90;;;;;;4975692;28;20180;-69
2023/02/10 06:39:14;;;;;;;30.30;19.30;;;-2.70;99.90;;;;;;4974918;28;20280;-70
2023/02/10 06:41:41;;;;;;;32.57;19.43;;;-2.70;99.90;;;;;;4975618;28;20188;-69
2023/02/10 06:44:06;;;;;;;29.93;20.20;;;-2.70;99.90;;;;;;4975588;28;20569;-70
2023/02/10 06:46:32;;;;;;;36.97;20.63;;;-2.80;99.90;;;;;;4975549;28;20462;-70
2023/02/10 06:48:59;;;;;;;27.80;19.63;;;-2.70;99.90;;;;;;4974143;28;20196;-70
2023/02/10 06:51:25;;;;;;;34.87;21.83;;;-2.70;99.90;;;;;;4975373;28;20168;-69
2023/02/10 06:53:50;;;;;;;33.80;20.03;;;-2.70;99.90;;;;;;4975454;28;20485;-69
2023/02/10 06:56:16;;;;;;;32.80;22.20;;;-2.70;99.90;;;;;;4975312;28;20195;-69
2023/02/10 06:58:41;;;;;;;32.33;20.30;;;-2.70;99.90;;;;;;4974530;28;20192;-69
2023/02/10 07:01:12;;;;;;;30.70;20.20;;;-2.70;99.90;;;;;;4975290;28;20677;-71
2023/02/10 07:03:39;;;;;;;34.77;20.50;;;-2.60;99.90;;;;;;4975319;28;20177;-69
2023/02/10 07:06:05;;;;;;;34.33;20.20;;;-2.60;99.90;;;;;;4975246;28;20434;-70
2023/02/10 07:08:31;;;;;;;34.67;20.47;;;-2.50;99.90;;;;;;4974289;28;20546;-70
2023/02/10 07:10:56;;;;;;;37.17;19.90;;;-2.50;99.90;;;;;;4975334;28;20412;-70
2023/02/10 07:13:22;;;;;;;33.83;19.80;;;-2.50;99.90;;;;;;4975114;28;20455;-70
2023/02/10 07:15:47;;;;;;;36.93;21.77;;;-2.40;99.90;;;;;;4975400;28;20181;-69
2023/02/10 07:18:13;;;;;;;37.03;21.67;;;-2.40;99.90;;;;;;4974301;28;20283;-70
2023/02/10 07:20:39;;;;;;;36.80;21.20;;;-2.10;99.90;;;;;;4974967;28;20188;-70
2023/02/10 07:23:04;;;;;;;40.07;27.10;;;-1.80;99.90;;;;;;4974782;28;20478;-69
2023/02/10 07:25:30;;;;;;;39.67;25.47;;;-1.50;99.90;;;;;;4974876;28;20195;-70
2023/02/10 07:27:55;;;;;;;42.07;23.80;;;-1.10;99.90;;;;;;4973393;28;20204;-70
2023/02/10 07:30:21;;;;;;;38.33;23.53;;;-0.70;99.90;;;;;;4974110;28;20184;-70
2023/02/10 07:32:47;;;;;;;39.83;22.53;;;-0.20;99.90;;;;;;4974748;28;20215;-70
2023/02/10 07:35:12;;;;;;;34.57;21.63;;;0.10;99.90;;;;;;4974635;28;20222;-70
2023/02/10 07:37:38;;;;;;;32.03;21.67;;;0.40;99.90;;;;;;4974500;28;20238;-70
2023/02/10 07:40:05;;;;;;;41.07;22.70;;;0.60;99.90;;;;;;4973852;28;20188;-70
2023/02/10 07:42:31;;;;;;;34.33;22.70;;;1.00;99.90;;;;;;4974457;28;20459;-69
2023/02/10 07:44:57;;;;;;;35.70;23.00;;;1.40;99.90;;;;;;4974525;28;20420;-70
2023/02/10 07:47:23;;;;;;;35.60;22.90;;;1.70;99.90;;;;;;4974466;28;20486;-69
2023/02/10 07:49:50;;;;;;;33.07;23.07;;;2.10;99.90;;;;;;4973581;28;20949;-70
2023/02/10 07:52:16;;;;;;;37.33;23.33;;;2.20;99.90;;;;;;4974330;28;20172;-69
2023/02/10 07:54:41;;;;;;;32.53;22.03;;;2.50;99.90;;;;;;4974192;28;20427;-70
2023/02/10 07:57:07;;;;;;;31.23;22.53;;;3.00;99.90;;;;;;4974337;28;20188;-70
2023/02/10 07:59:32;;;;;;;32.57;22.43;;;3.40;99.90;;;;;;4972575;28;20227;-69
2023/02/10 08:01:58;;;;;;;31.13;22.03;;;3.80;99.90;;;;;;4974170;28;20231;-69
2023/02/10 08:04:23;;;;;;;32.63;23.67;;;4.40;99.90;;;;;;4974167;28;20176;-70
2023/02/10 08:06:49;;;;;;;48.67;25.27;;;4.70;99.90;;;;;;4973945;28;20204;-69
2023/02/10 08:09:17;;;;;;;31.23;23.90;;;4.80;99.90;;;;;;4973387;28;20271;-69
2023/02/10 08:11:42;;;;;;;32.93;23.37;;;5.20;99.90;;;;;;4974049;28;20183;-69
2023/02/10 08:14:08;;;;;;;31.97;23.90;;;5.50;99.90;;;;;;4974095;28;20412;-69
2023/02/10 08:16:33;;;;;;;38.43;23.90;;;5.30;99.90;;;;;;4973967;28;20175;-69
2023/02/10 08:18:59;;;;;;;35.77;23.70;;;5.80;99.90;;;;;;4973078;28;20202;-69
2023/02/10 08:21:26;;;;;;;38.50;24.97;;;6.20;99.90;;;;;;4973749;28;20173;-69
2023/02/10 08:23:56;;;;;;;32.00;23.10;;;6.40;99.90;;;;;;4973851;28;20249;-70
2023/02/10 08:26:22;;;;;;;27.87;23.40;;;6.00;99.90;;;;;;4973749;28;20555;-69
2023/02/10 08:28:48;;;;;;;35.07;25.93;;;6.10;99.90;;;;;;4972922;28;20456;-70
2023/02/10 08:31:13;;;;;;;34.03;25.53;;;6.50;99.90;;;;;;4973864;28;20175;-70
2023/02/10 08:33:40;;;;;;;28.67;22.43;;;7.00;99.90;;;;;;4973610;28;20646;-67
2023/02/10 08:36:11;;;;;;;38.67;24.40;;;7.60;99.20;;;;;;4973544;28;20168;-70
2023/02/10 08:38:37;;;;;;;34.93;24.40;;;7.50;98.90;;;;;;4972832;28;20440;-70
2023/02/10 08:41:03;;;;;;;34.03;25.87;;;8.00;97.50;;;;;;4973535;28;20922;-70
2023/02/10 08:43:29;;;;;;;34.63;25.33;;;8.20;96.60;;;;;;4973572;28;20461;-67
2023/02/10 08:45:56;;;;;;;31.37;24.20;;;9.20;95.10;;;;;;4973508;28;20192;-70
2023/02/10 08:48:21;;;;;;;32.60;25.10;;;10.60;92.20;;;;;;4972563;28;20203;-67
2023/02/10 08:50:47;;;;;;;32.40;25.03;;;11.00;86.90;;;;;;4973386;28;20419;-67
2023/02/10 08:53:12;;;;;;;30.17;26.23;;;11.80;81.90;;;;;;4973378;28;20175;-68
2023/02/10 08:55:38;;;;;;;27.40;22.70;;;12.10;78.10;;;;;;4972027;28;20642;-67
2023/02/10 08:58:05;;;;;;;29.63;26.00;;;12.10;76.50;;;;;;4973191;28;20184;-68
2023/02/10 09:00:31;;;;;;;30.57;24.93;;;12.80;74.00;;;;;;4972764;28;20204;-67
2023/02/10 09:02:56;;;;;;;33.67;25.80;;;12.40;70.80;;;;;;4973246;28;20502;-67
2023/02/10 09:05:22;;;;;;;31.40;25.83;;;12.50;71.10;;;;;;4973279;28;20322;-68
2023/02/10 09:07:47;;;;;;;30.47;25.70;;;12.60;70.60;;;;;;4973108;28;20728;-67
2023/02/10 09:10:14;;;;;;;31.47;27.20;;;11.80;69.50;;;;;;4972751;28;20203;-67
2023/02/10 09:12:40;;;;;;;31.97;26.73;;;12.50;70.40;;;;;;4979229;28;20192;-67
2023/02/10 09:15:07;;;;;;;27.13;24.27;;;13.80;66.90;;;;;;4979415;28;20929;-68
2023/02/10 09:17:32;;;;;;;34.30;28.60;;;14.20;62.90;;;;;;4979184;28;20841;-68
2023/02/10 09:19:58;;;;;;;31.97;27.63;;;15.10;59.90;;;;;;4978558;28;20450;-68
2023/02/10 09:22:23;;;;;;;35.83;26.77;;;15.80;58.60;;;;;;4979399;28;20607;-68
2023/02/10 09:24:51;;;;;;;31.10;26.47;;;15.90;57.00;;;;;;4979390;28;20630;-67
2023/02/10 09:27:18;;;;;;;36.37;27.13;;;15.20;56.90;;;;;;4977749;28;20204;-67
2023/02/10 09:29:43;;;;;;;27.70;24.20;;;14.80;56.80;;;;;;4978694;28;20821;-67
2023/02/10 09:32:09;;;;;;;31.07;27.77;;;14.60;56.80;;;;;;4979475;28;20426;-67
2023/02/10 09:34:35;;;;;;;33.83;26.30;;;15.00;56.70;;;;;;4979517;28;20180;-68
2023/02/10 09:37:02;;;;;;;32.57;25.50;;;15.20;55.70;;;;;;4979435;28;20411;-67
2023/02/10 09:39:28;;;;;;;30.97;26.07;;;15.60;55.00;;;;;;4978638;28;20211;-68
2023/02/10 09:42:03;;;;;;;33.93;28.80;;;15.20;54.60;;;;;;4979457;28;20411;-68
2023/02/10 09:44:36;;;;;;;31.37;27.80;;;16.00;54.50;;;;;;4979392;28;20414;-68
2023/02/10 09:47:20;;;;;;;33.30;26.70;;;16.60;53.50;;;;;;4979247;28;20825;-67
2023/02/10 09:50:04;;;;;;;29.90;26.47;;;17.20;51.20;;;;;;4978468;28;20779;-68
2023/02/10 09:52:48;;;;;;;32.03;25.97;;;17.90;50.30;;;;;;4979302;28;20474;-68
2023/02/10 09:55:38;;;;;;;29.63;26.27;;;17.60;48.80;;;;;;4979126;28;20427;-68
2023/02/10 09:58:12;;;;;;;29.10;26.10;;;17.90;48.40;;;;;;4979092;28;20426;-68
2023/02/10 10:00:42;;;;;;;27.50;24.37;;;17.60;48.60;;;;;;4979219;28;20415;-67
2023/02/10 10:03:32;;;;;;;31.87;26.20;;;18.10;47.50;;;;;;4979179;28;20461;-67
2023/02/10 10:06:12;;;;;;;29.77;26.67;;;17.90;46.90;;;;;;4958358;28;20427;-67
2023/02/10 10:08:54;;;;;;;29.03;25.93;;;17.80;46.10;;;;;;4978530;28;20471;-68
2023/02/10 10:11:44;;;;;;;28.80;25.90;;;18.10;46.10;;;;;;4979419;28;20411;-68
2023/02/10 10:14:21;;;;;;;40.87;27.73;;;18.70;44.70;;;;;;4973142;28;20527;-68
2023/02/10 10:17:08;;;;;;;34.20;26.90;;;18.10;44.50;;;;;;4979045;28;20422;-68
2023/02/10 10:20:03;;;;;;;30.23;27.10;;;17.20;45.70;;;;;;4978431;28;20522;-67
2023/02/10 10:22:59;;;;;;;31.10;27.80;;;17.90;44.20;;;;;;4976970;28;20458;-68
2023/02/10 10:25:49;;;;;;;27.77;24.83;;;18.40;43.60;;;;;;4975952;28;20471;-68
2023/02/10 10:28:45;;;;;;;28.87;25.90;;;19.10;41.80;;;;;;4973364;28;20977;-68
2023/02/10 10:31:25;;;;;;;26.90;24.10;;;19.30;41.50;;;;;;4975562;28;20419;-67
2023/02/10 10:33:56;;;;;;;30.13;27.10;;;19.50;40.50;;;;;;4975829;28;20785;-67
2023/02/10 10:36:33;;;;;;;30.73;27.47;;;20.20;39.40;;;;;;4975851;28;20791;-67
2023/02/10 10:39:06;;;;;;;29.57;25.80;;;18.20;41.30;;;;;;4974992;28;20972;-68
2023/02/10 10:41:35;;;;;;;27.50;24.63;;;18.40;41.70;;;;;;4975700;28;20510;-68
2023/02/10 10:44:00;;;;;;;30.27;26.37;;;18.90;41.30;;;;;;4975633;28;20419;-68
2023/02/10 10:46:44;;;;;;;27.77;24.53;;;19.40;40.10;;;;;;4975506;28;20439;-68
2023/02/10 10:49:09;;;;;;;28.17;24.90;;;19.90;39.30;;;;;;4974913;28;20189;-67
2023/02/10 10:51:35;;;;;;;27.30;24.50;;;20.80;37.80;;;;;;4975563;28;20431;-68
2023/02/10 10:54:02;;;;;;;27.70;24.80;;;21.20;35.80;;;;;;4974217;28;20169;-68
2023/02/10 10:56:44;;;;;;;26.67;23.83;;;20.90;35.30;;;;;;4974621;28;20180;-67
2023/02/10 10:59:33;;;;;;;27.53;24.80;;;20.60;35.30;;;;;;4974805;28;20472;-66
2023/02/10 11:02:09;;;;;;;30.10;25.30;;;20.90;35.40;;;;;;4975374;28;20420;-66
2023/02/10 11:04:37;;;;;;;28.63;25.80;;;21.40;35.10;;;;;;4975305;28;20419;-67
2023/02/10 11:07:09;;;;;;;28.43;25.47;;;21.80;33.70;;;;;;4975271;28;20463;-67
2023/02/10 11:09:40;;;;;;;26.10;23.30;;;21.20;33.80;;;;;;4973488;28;20451;-67
2023/02/10 11:12:36;;;;;;;28.23;25.53;;;20.90;34.40;;;;;;4975205;28;20419;-67
2023/02/10 11:15:15;;;;;;;33.23;29.57;;;21.70;33.50;;;;;;4975368;28;20970;-67
2023/02/10 11:17:41;;;;;;;30.63;27.70;;;22.60;32.60;;;;;;4973786;28;20435;-67
2023/02/10 11:20:13;;;;;;;31.73;28.33;;;22.60;32.20;;;;;;4974379;28;20447;-67
2023/02/10 11:22:39;;;;;;;28.53;25.73;;;22.50;32.00;;;;;;4974999;28;20426;-67
2023/02/10 11:25:25;;;;;;;28.10;25.20;;;23.10;30.90;;;;;;4974948;28;20894;-67
2023/02/10 11:27:52;;;;;;;29.20;26.27;;;22.70;31.10;;;;;;4974457;28;20486;-67
2023/02/10 11:30:34;;;;;;;27.10;24.50;;;22.20;30.90;;;;;;4974264;28;20843;-67
2023/02/10 11:33:01;;;;;;;27.13;24.33;;;23.20;31.00;;;;;;4974873;28;20973;-67
2023/02/10 11:35:30;;;;;;;26.60;23.93;;;23.00;30.90;;;;;;4974617;28;20993;-67
2023/02/10 11:38:02;;;;;;;25.97;23.37;;;23.00;31.20;;;;;;4974530;28;20431;-68
2023/02/10 11:40:30;;;;;;;26.43;23.57;;;23.40;30.40;;;;;;4974046;28;20451;-67
2023/02/10 11:42:59;;;;;;;29.87;27.03;;;24.30;33.00;;;;;;4974651;28;20434;-68
2023/02/10 11:45:30;;;;;;;26.43;23.73;;;24.70;39.80;;;;;;4974531;28;20458;-67
2023/02/10 11:48:05;;;;;;;27.03;24.33;;;25.20;42.00;;;;;;4974427;28;20906;-68
2023/02/10 11:50:34;;;;;;;27.40;24.90;;;25.50;42.10;;;;;;4974015;28;20423;-67
2023/02/10 11:53:00;;;;;;;30.90;23.63;;;24.70;28.10;;;;;;4974442;28;20419;-67
2023/02/10 11:55:41;;;;;;;27.10;24.33;;;23.10;28.50;;;;;;4974255;28;20436;-67
2023/02/10 12:01:24;;;;;;;31.80;27.37;;;24.30;28.40;;;;;;4974266;28;20494;-67
2023/02/10 12:04:24;;;;;;;34.00;30.70;;;23.50;29.20;;;;;;4974323;28;20462;-67
2023/02/10 12:07:24;;;;;;;30.90;27.87;;;22.30;30.30;;;;;;4974098;28;20459;-67
2023/02/10 12:10:11;;;;;;;30.57;27.43;;;21.40;30.50;;;;;;4973537;28;20788;-67
2023/02/10 12:12:59;;;;;;;27.53;24.97;;;21.80;30.80;;;;;;4974130;28;20415;-68
2023/02/10 12:15:55;;;;;;;30.30;27.20;;;21.80;30.50;;;;;;4974031;28;20430;-68
2023/02/10 12:18:40;;;;;;;32.00;28.83;;;22.10;30.60;;;;;;4973235;28;21094;-67
2023/02/10 12:21:28;;;;;;;31.20;28.00;;;23.00;29.40;;;;;;4973934;28;21001;-68
2023/02/10 12:24:32;;;;;;;29.87;27.10;;;22.80;29.70;;;;;;4973918;28;20455;-68
2023/02/10 12:27:22;;;;;;;30.50;27.40;;;22.40;29.50;;;;;;4973704;28;20525;-68
2023/02/10 12:30:15;;;;;;;29.80;26.93;;;23.10;29.50;;;;;;4971759;28;20443;-68
2023/02/10 12:33:18;;;;;;;30.83;26.70;;;23.80;28.60;;;;;;4973635;28;20463;-68
2023/02/10 12:35:55;;;;;;;28.50;25.73;;;24.10;28.40;;;;;;4973755;28;20889;-68
2023/02/10 12:38:37;;;;;;;30.20;27.20;;;24.70;28.30;;;;;;4972833;28;20546;-68
2023/02/10 12:41:35;;;;;;;29.17;26.13;;;24.70;28.20;;;;;;4973647;28;20439;-67
2023/02/10 12:44:29;;;;;;;31.27;28.27;;;24.10;28.30;;;;;;4973487;28;20428;-67
2023/02/10 12:47:19;;;;;;;30.77;27.67;;;23.70;28.60;;;;;;4972980;28;20517;-67